Nelma, Wisconsin
Current Conditions -  °F | °C
As of 3:15 PM on Thursday 23 Oct 2014 (Local Time) from KEGV Reporting Station
Light Rain Light Rain  
Wind Chill: 44°   Ceiling: 500
Heat Index: 44°   Visibility: 5mi
Dew Point: 44°   Wind: 3mph
Humidity: 100%   Direction: 200°SSW
Pressure: 30"   Gusts: NA
Location:  45.9186°N, 88.7601°W
Report Text: KEGV 232015Z AUTO 20003KT 5SM -RA OVC005 07/07 A3000 RMK AO2 T00670067
Loading
Personal Weather Stations






























Interactive Weather Map
Tropical Storm Tracking
New forecast layout! Learn more

10-Day Weather Forecast

Advertisements
Track Severe Weather on mobile